Observation data for Silverton on 12/09/2018      Previous  Date       Current Mesonet Observations  Soil Data  Daily Summary Page  Observations in Plain Language
KSVS 090600Z 30005KT M08/M10 A3031 RMK A01 T10831098  RH  089%=      5-min Rain = 0
KSVS 090605Z 30005KT M09/M10 A3031 RMK A01 T10851100  RH  089%=      5-min Rain = 0
KSVS 090610Z 30006KT M09/M10 A3031 RMK A01 T10871101  RH  089%=      5-min Rain = 0
KSVS 090615Z 30006KT M09/M10 A3031 RMK A01 T10861100  RH  089%=      5-min Rain = 0
KSVS 090620Z 30006KT M08/M10 A3031 RMK A01 T10831096  RH  090%=      5-min Rain = 0
KSVS 090625Z 30006KT M08/M09 A3031 RMK A01 T10811094  RH  090%=      5-min Rain = 0
KSVS 090630Z 30005KT M08/M10 A3031 RMK A01 T10821096  RH  090%=      5-min Rain = 0
KSVS 090635Z 30005KT M08/M09 A3031 RMK A01 T10801093  RH  090%=      5-min Rain = 0
KSVS 090640Z 30005KT M08/M09 A3031 RMK A01 T10791092  RH  090%=      5-min Rain = 0
KSVS 090645Z 30006KT M08/M09 A3031 RMK A01 T10791092  RH  090%=      5-min Rain = 0
KSVS 090650Z 30006KT M08/M09 A3031 RMK A01 T10791091  RH  091%=      5-min Rain = 0
KSVS 090655Z 30006KT M08/M10 A3031 RMK A01 T10831096  RH  090%=      5-min Rain = 0
KSVS 090700Z 30006KT M09/M10 A3031 RMK A01 T10861099  RH  090%=      5-min Rain = 0
KSVS 090705Z 30006KT M09/M10 A3031 RMK A01 T10851098  RH  090%=      5-min Rain = 0
KSVS 090710Z 31006KT M09/M10 A3031 RMK A01 T10871099  RH  090%=      5-min Rain = 0
KSVS 090715Z 31006KT M09/M10 A3031 RMK A01 T10851097  RH  090%=      5-min Rain = 0
KSVS 090720Z 31005KT M08/M10 A3031 RMK A01 T10831095  RH  091%=      5-min Rain = 0
KSVS 090725Z 31005KT M08/M10 A303 RMK A01 T10841096  RH  091%=      5-min Rain = 0
KSVS 090730Z 31005KT M08/M10 A303 RMK A01 T10821095  RH  091%=      5-min Rain = 0
KSVS 090735Z 31005KT M07/M09 A303 RMK A01 T10741085  RH  092%=      5-min Rain = 0
KSVS 090740Z 31005KT M08/M09 A303 RMK A01 T10751086  RH  092%=      5-min Rain = 0
KSVS 090745Z 31004KT M08/M09 A303 RMK A01 T10761087  RH  092%=      5-min Rain = 0
KSVS 090750Z 30005KT M07/M08 A303 RMK A01 T10731084  RH  092%=      5-min Rain = 0
KSVS 090755Z 30005KT M08/M09 A303 RMK A01 T10771088  RH  091%=      5-min Rain = 0
KSVS 090800Z 30004KT M08/M09 A303 RMK A01 T10801091  RH  091%=      5-min Rain = 0
KSVS 090805Z 30004KT M08/M09 A303 RMK A01 T10781089  RH  091%=      5-min Rain = 0
KSVS 090810Z 30004KT M08/M09 A303 RMK A01 T10761087  RH  092%=      5-min Rain = 0
KSVS 090815Z 30004KT M07/M08 A303 RMK A01 T10731084  RH  092%=      5-min Rain = 0
KSVS 090820Z 30005KT M07/M09 A303 RMK A01 T10741085  RH  092%=      5-min Rain = 0
KSVS 090825Z 30005KT M08/M09 A303 RMK A01 T10761087  RH  092%=      5-min Rain = 0
KSVS 090830Z 30005KT M08/M09 A303 RMK A01 T10781089  RH  092%=      5-min Rain = 0
KSVS 090835Z 30005KT M08/M10 A3031 RMK A01 T10831095  RH  091%=      5-min Rain = 0
KSVS 090840Z 30005KT M09/M10 A3031 RMK A01 T10861098  RH  091%=      5-min Rain = 0
KSVS 090845Z 30005KT M09/M10 A303 RMK A01 T10881100  RH  091%=      5-min Rain = 0
KSVS 090850Z 31005KT M09/M10 A303 RMK A01 T10871099  RH  091%=      5-min Rain = 0
KSVS 090855Z 31005KT M09/M10 A303 RMK A01 T10851097  RH  091%=      5-min Rain = 0
KSVS 090900Z 32006KT M09/M10 A303 RMK A01 T10871099  RH  090%=      5-min Rain = 0
KSVS 090905Z 32006KT M09/M10 A303 RMK A01 T10871099  RH  090%=      5-min Rain = 0
KSVS 090910Z 33006KT M08/M09 A303 RMK A01 T10801092  RH  091%=      5-min Rain = 0
KSVS 090915Z 33006KT M07/M09 A303 RMK A01 T10741086  RH  091%=      5-min Rain = 0
KSVS 090920Z 33005KT M07/M09 A303 RMK A01 T10741086  RH  091%=      5-min Rain = 0
KSVS 090925Z 33005KT M08/M09 A303 RMK A01 T10781091  RH  091%=      5-min Rain = 0
KSVS 090930Z 34005KT M08/M10 A303 RMK A01 T10821095  RH  090%=      5-min Rain = 0
KSVS 090935Z 33005KT M08/M10 A303 RMK A01 T10831096  RH  090%=      5-min Rain = 0
KSVS 090940Z 33005KT M09/M10 A303 RMK A01 T10851099  RH  090%=      5-min Rain = 0
KSVS 090945Z 33005KT M09/M10 A303 RMK A01 T10851098  RH  090%=      5-min Rain = 0
KSVS 090950Z 33005KT M09/M10 A3031 RMK A01 T10871101  RH  089%=      5-min Rain = 0
KSVS 090955Z 32005KT M09/M10 A3031 RMK A01 T10881102  RH  089%=      5-min Rain = 0
KSVS 091000Z 32005KT M09/M10 A3031 RMK A01 T10891103  RH  089%=      5-min Rain = 0
KSVS 091005Z 33005KT M09/M10 A3031 RMK A01 T10881102  RH  089%=      5-min Rain = 0
KSVS 091010Z 32005KT M09/M10 A3031 RMK A01 T10881102  RH  089%=      5-min Rain = 0
KSVS 091015Z 32005KT M09/M10 A303 RMK A01 T10871101  RH  089%=      5-min Rain = 0
KSVS 091020Z 33005KT M08/M10 A303 RMK A01 T10841098  RH  090%=      5-min Rain = 0
KSVS 091025Z 34005KT M08/M10 A303 RMK A01 T10821095  RH  090%=      5-min Rain = 0
KSVS 091030Z 34004KT M08/M10 A303 RMK A01 T10821095  RH  090%=      5-min Rain = 0
KSVS 091035Z 34005KT M08/M09 A303 RMK A01 T10811094  RH  090%=      5-min Rain = 0
KSVS 091040Z 33006KT M08/M09 A303 RMK A01 T10801094  RH  090%=      5-min Rain = 0
KSVS 091045Z 32006KT M08/M09 A303 RMK A01 T10811094  RH  090%=      5-min Rain = 0
KSVS 091050Z 32005KT M08/M10 A303 RMK A01 T10811095  RH  089%=      5-min Rain = 0
KSVS 091055Z 31006KT M08/M10 A303 RMK A01 T10821095  RH  089%=      5-min Rain = 0
KSVS 091100Z 32006KT M08/M09 A303 RMK A01 T10811094  RH  090%=      5-min Rain = 0
KSVS 091105Z 33006KT M08/M09 A303 RMK A01 T10791092  RH  090%=      5-min Rain = 0
KSVS 091110Z 33006KT M08/M09 A303 RMK A01 T10771091  RH  090%=      5-min Rain = 0
KSVS 091115Z 33006KT M08/M09 A303 RMK A01 T10751089  RH  090%=      5-min Rain = 0
KSVS 091120Z 33007KT M07/M09 A303 RMK A01 T10741088  RH  090%=      5-min Rain = 0
KSVS 091125Z 33006KT M08/M09 A303 RMK A01 T10761090  RH  090%=      5-min Rain = 0
KSVS 091130Z 34006KT M08/M09 A303 RMK A01 T10761090  RH  090%=      5-min Rain = 0
KSVS 091135Z 33005KT M08/M09 A3031 RMK A01 T10771091  RH  089%=      5-min Rain = 0
KSVS 091140Z 32005KT M07/M09 A3031 RMK A01 T10731086  RH  090%=      5-min Rain = 0
KSVS 091145Z 33005KT M07/M09 A3031 RMK A01 T10721085  RH  090%=      5-min Rain = 0
KSVS 091150Z 33005KT M08/M09 A3031 RMK A01 T10751089  RH  090%=      5-min Rain = 0
KSVS 091155Z 33005KT M08/M09 A3031 RMK A01 T10781092  RH  089%=      5-min Rain = 0
KSVS 091200Z 33005KT M08/M09 A3031 RMK A01 T10781092  RH  089%=      5-min Rain = 0
KSVS 091205Z 33005KT M08/M09 A3031 RMK A01 T10781092  RH  089%=      5-min Rain = 0
KSVS 091210Z 33005KT M08/M10 A3031 RMK A01 T10831098  RH  089%=      5-min Rain = 0
KSVS 091215Z 33005KT M08/M09 A3032 RMK A01 T10791093  RH  089%=      5-min Rain = 0
KSVS 091220Z 33004KT M08/M09 A3032 RMK A01 T10761090  RH  090%=      5-min Rain = 0
KSVS 091225Z 33004KT M07/M09 A3032 RMK A01 T10741088  RH  090%=      5-min Rain = 0
KSVS 091230Z 33004KT M07/M08 A3032 RMK A01 T10701084  RH  090%=      5-min Rain = 0
KSVS 091235Z 33005KT M07/M09 A3032 RMK A01 T10711085  RH  089%=      5-min Rain = 0
KSVS 091240Z 33005KT M08/M09 A3032 RMK A01 T10761092  RH  088%=      5-min Rain = 0
KSVS 091245Z 33005KT M07/M09 A3032 RMK A01 T10741089  RH  088%=      5-min Rain = 0
KSVS 091250Z 33005KT M08/M10 A3032 RMK A01 T10791096  RH  087%=      5-min Rain = 0
KSVS 091255Z 33005KT M08/M10 A3033 RMK A01 T10821098  RH  088%=      5-min Rain = 0
KSVS 091300Z 33005KT M08/M09 A3033 RMK A01 T10761091  RH  089%=      5-min Rain = 0
KSVS 091305Z 33005KT M07/M09 A3033 RMK A01 T10731088  RH  089%=      5-min Rain = 0
KSVS 091310Z 33005KT M08/M10 A3033 RMK A01 T10791096  RH  087%=      5-min Rain = 0
KSVS 091315Z 33006KT M08/M10 A3033 RMK A01 T10821099  RH  087%=      5-min Rain = 0
KSVS 091320Z 33006KT M08/M10 A3033 RMK A01 T10801097  RH  087%=      5-min Rain = 0
KSVS 091325Z 34006KT M08/M09 A3034 RMK A01 T10761093  RH  087%=      5-min Rain = 0
KSVS 091330Z 33006KT M08/M10 A3034 RMK A01 T10801099  RH  086%=      5-min Rain = 0
KSVS 091335Z 32005KT M09/M11 A3034 RMK A01 T10901111  RH  084%=      5-min Rain = 0
KSVS 091340Z 32005KT M09/M11 A3034 RMK A01 T10881108  RH  085%=      5-min Rain = 0
KSVS 091345Z 32004KT M08/M10 A3034 RMK A01 T10841103  RH  086%=      5-min Rain = 0
KSVS 091350Z 32003KT M08/M10 A3034 RMK A01 T10821101  RH  086%=      5-min Rain = 0
KSVS 091355Z 31003KT M08/M10 A3035 RMK A01 T10821101  RH  086%=      5-min Rain = 0
KSVS 091400Z 30002KT M08/M10 A3035 RMK A01 T10791098  RH  086%=      5-min Rain = 0
KSVS 091405Z 29003KT M07/M09 A3035 RMK A01 T10741093  RH  086%=      5-min Rain = 0
KSVS 091410Z 29003KT M07/M09 A3035 RMK A01 T10691088  RH  086%=      5-min Rain = 0
KSVS 091415Z 28003KT M06/M08 A3035 RMK A01 T10621081  RH  086%=      5-min Rain = 0
KSVS 091420Z 28004KT M06/M08 A3035 RMK A01 T10581079  RH  085%=      5-min Rain = 0
KSVS 091425Z 29004KT M06/M08 A3036 RMK A01 T10591080  RH  085%=      5-min Rain = 0
KSVS 091430Z 29004KT M06/M08 A3035 RMK A01 T10581078  RH  086%=      5-min Rain = 0
KSVS 091435Z 29004KT M05/M08 A3035 RMK A01 T10541075  RH  085%=      5-min Rain = 0
KSVS 091440Z 29004KT M05/M07 A3035 RMK A01 T10501072  RH  084%=      5-min Rain = 0
KSVS 091445Z 29005KT M05/M07 A3036 RMK A01 T10461070  RH  084%=      5-min Rain = 0
KSVS 091450Z 28004KT M04/M07 A3036 RMK A01 T10431067  RH  083%=      5-min Rain = 0
KSVS 091455Z 29004KT M04/M06 A3036 RMK A01 T10391063  RH  083%=      5-min Rain = 0
KSVS 091500Z 29005KT M04/M06 A3036 RMK A01 T10351059  RH  084%=      5-min Rain = 0
KSVS 091505Z 29004KT M03/M06 A3037 RMK A01 T10311055  RH  084%=      5-min Rain = 0
KSVS 091510Z 30005KT M03/M05 A3037 RMK A01 T10271051  RH  084%=      5-min Rain = 0
KSVS 091515Z 29005KT M03/M05 A3037 RMK A01 T10271049  RH  085%=      5-min Rain = 0
KSVS 091520Z 29005KT M03/M05 A3037 RMK A01 T10271049  RH  085%=      5-min Rain = 0
KSVS 091525Z 28005KT M02/M05 A3037 RMK A01 T10241048  RH  084%=      5-min Rain = 0
KSVS 091530Z 28004KT M02/M05 A3037 RMK A01 T10231049  RH  083%=      5-min Rain = 0
KSVS 091535Z 29004KT M02/M05 A3038 RMK A01 T10211045  RH  084%=      5-min Rain = 0
KSVS 091540Z 29004KT M02/M04 A3038 RMK A01 T10181042  RH  084%=      5-min Rain = 0
KSVS 091545Z 29003KT M02/M04 A3038 RMK A01 T10151041  RH  083%=      5-min Rain = 0
KSVS 091550Z 30003KT M01/M04 A3038 RMK A01 T10111037  RH  083%=      5-min Rain = 0
KSVS 091555Z 31003KT M01/M03 A3038 RMK A01 T10061033  RH  083%=      5-min Rain = 0
KSVS 091600Z 30003KT M00/M03 A3038 RMK A01 T10041032  RH  082%=      5-min Rain = 0
KSVS 091605Z 31003KT M00/M03 A3038 RMK A01 T10021030  RH  082%=      5-min Rain = 0
KSVS 091610Z 32004KT 00/M03 A3038 RMK A01 T00011029  RH  081%=      5-min Rain = 0
KSVS 091615Z 33004KT 01/M03 A3038 RMK A01 T00061025  RH  080%=      5-min Rain = 0
KSVS 091620Z 33004KT 01/M02 A3038 RMK A01 T00101020  RH  081%=      5-min Rain = 0
KSVS 091625Z 34004KT 02/M02 A3038 RMK A01 T00151020  RH  078%=      5-min Rain = 0
KSVS 091630Z 35005KT 02/M03 A3038 RMK A01 T00181028  RH  072%=      5-min Rain = 0
KSVS 091635Z 35005KT 02/M03 A3038 RMK A01 T00201030  RH  070%=      5-min Rain = 0
KSVS 091640Z 35005KT 02/M04 A3038 RMK A01 T00211035  RH  067%=      5-min Rain = 0
KSVS 091645Z 35005KT 02/M04 A3038 RMK A01 T00221036  RH  066%=      5-min Rain = 0
KSVS 091650Z 35004KT 02/M03 A3038 RMK A01 T00231033  RH  067%=      5-min Rain = 0
KSVS 091655Z 36004KT 03/M04 A3038 RMK A01 T00251036  RH  064%=      5-min Rain = 0
KSVS 091700Z 35006KT 03/M04 A3038 RMK A01 T00261037  RH  064%=      5-min Rain = 0
KSVS 091705Z 36007KT 03/M04 A3038 RMK A01 T00261040  RH  062%=      5-min Rain = 0
KSVS 091710Z 36006KT 03/M04 A3038 RMK A01 T00291035  RH  063%=      5-min Rain = 0.01
KSVS 091715Z 00006KT 03/M04 A3038 RMK A01 T00301038  RH  061%=      5-min Rain = 0.01
KSVS 091720Z 36007KT 03/M04 A3038 RMK A01 T00301041  RH  060%=      5-min Rain = 0
KSVS 091725Z 00006KT 03/M04 A3037 RMK A01 T00321041  RH  059%=      5-min Rain = 0
KSVS 091730Z 36005KT 03/M04 A3037 RMK A01 T00331041  RH  059%=      5-min Rain = 0
KSVS 091735Z 01005KT 04/M04 A3037 RMK A01 T00351042  RH  057%=      5-min Rain = 0.01
KSVS 091740Z 01005KT 04/M04 A3037 RMK A01 T00361039  RH  058%=      5-min Rain = 0
KSVS 091745Z 02006KT 04/M04 A3037 RMK A01 T00371039  RH  058%=      5-min Rain = 0
KSVS 091750Z 03005KT 04/M04 A3037 RMK A01 T00371035  RH  059%=      5-min Rain = 0
KSVS 091755Z 05004KT 04/M04 A3037 RMK A01 T00371038  RH  058%=      5-min Rain = 0
KSVS 091800Z 06005KT 04/M04 A3037 RMK A01 T00361038  RH  059%=      5-min Rain = 0
KSVS 091805Z 06005KT 04/M04 A3037 RMK A01 T00361041  RH  058%=      5-min Rain = 0.01
KSVS 091810Z 07004KT 04/M04 A3036 RMK A01 T00351041  RH  058%=      5-min Rain = 0.01
KSVS 091815Z 07004KT 04/M04 A3036 RMK A01 T00371044  RH  056%=      5-min Rain = 0
KSVS 091820Z 07004KT 04/M04 A3036 RMK A01 T00381042  RH  056%=      5-min Rain = 0
KSVS 091825Z 06004KT 04/M04 A3036 RMK A01 T00401040  RH  056%=      5-min Rain = 0
KSVS 091830Z 06004KT 04/M04 A3036 RMK A01 T00391044  RH  055%=      5-min Rain = 0
KSVS 091835Z 08003KT 04/M04 A3036 RMK A01 T00411043  RH  055%=      5-min Rain = 0
KSVS 091840Z 09004KT 04/M04 A3035 RMK A01 T00411044  RH  054%=      5-min Rain = 0.01
KSVS 091845Z 10003KT 04/M04 A3035 RMK A01 T00421042  RH  054%=      5-min Rain = 0
KSVS 091850Z 09003KT 04/M04 A3035 RMK A01 T00441043  RH  053%=      5-min Rain = 0
KSVS 091855Z 10003KT 05/M05 A3035 RMK A01 T00451046  RH  052%=      5-min Rain = 0
KSVS 091900Z 07003KT 05/M05 A3034 RMK A01 T00451047  RH  051%=      5-min Rain = 0
KSVS 091905Z 10003KT 05/M04 A3034 RMK A01 T00451044  RH  053%=      5-min Rain = 0
KSVS 091910Z 10003KT 05/M05 A3034 RMK A01 T00481045  RH  051%=      5-min Rain = 0.01
KSVS 091915Z 09003KT 05/M05 A3034 RMK A01 T00471045  RH  052%=      5-min Rain = 0
KSVS 091920Z 10002KT 05/M04 A3034 RMK A01 T00511044  RH  051%=      5-min Rain = 0
KSVS 091925Z 08004KT 05/M04 A3033 RMK A01 T00501042  RH  052%=      5-min Rain = 0
KSVS 091930Z 09003KT 05/M04 A3033 RMK A01 T00491042  RH  052%=      5-min Rain = 0
KSVS 091935Z 08003KT 05/M04 A3033 RMK A01 T00511042  RH  051%=      5-min Rain = 0.01
KSVS 091940Z 08001KT 05/M04 A3033 RMK A01 T00531041  RH  051%=      5-min Rain = 0
KSVS 091945Z 13001KT 06/M03 A3033 RMK A01 T00621033  RH  051%=      5-min Rain = 0
KSVS 091950Z 14002KT 06/M04 A3033 RMK A01 T00641041  RH  047%=      5-min Rain = 0
KSVS 091955Z 20001KT 06/M04 A3033 RMK A01 T00611041  RH  048%=      5-min Rain = 0.01
KSVS 092000Z 34000KT 06/M04 A3033 RMK A01 T00581040  RH  050%=      5-min Rain = 0
KSVS 092005Z 18001KT 06/M03 A3033 RMK A01 T00641032  RH  051%=      5-min Rain = 0.01
KSVS 092010Z 17002KT 07/M03 A3033 RMK A01 T00671034  RH  049%=      5-min Rain = 0.01
KSVS 092015Z 18003KT 07/M03 A3032 RMK A01 T00661034  RH  049%=      5-min Rain = 0.02
KSVS 092020Z 22002KT 07/M03 A3032 RMK A01 T00651034  RH  049%=      5-min Rain = 0
KSVS 092025Z 21002KT 07/M03 A3032 RMK A01 T00661031  RH  050%=      5-min Rain = 0
KSVS 092030Z 18001KT 07/M04 A3032 RMK A01 T00691035  RH  048%=      5-min Rain = 0
KSVS 092035Z 28002KT 07/M03 A3032 RMK A01 T00711027  RH  050%=      5-min Rain = 0
KSVS 092040Z 24002KT 07/M03 A3032 RMK A01 T00681034  RH  049%=      5-min Rain = 0
KSVS 092045Z 26000KT 07/M04 A3032 RMK A01 T00701037  RH  047%=      5-min Rain = 0
KSVS 092050Z 24001KT 07/M04 A3032 RMK A01 T00721036  RH  047%=      5-min Rain = 0
KSVS 092055Z 21000KT 07/M03 A3032 RMK A01 T00741034  RH  046%=      5-min Rain = 0
KSVS 092100Z 22003KT 07/M03 A3032 RMK A01 T00721031  RH  048%=      5-min Rain = 0
KSVS 092105Z 21002KT 07/M02 A3032 RMK A01 T00711024  RH  051%=      5-min Rain = 0
KSVS 092110Z 23003KT 07/M02 A3032 RMK A01 T00711024  RH  051%=      5-min Rain = 0
KSVS 092115Z 25002KT 07/M03 A3032 RMK A01 T00711026  RH  051%=      5-min Rain = 0
KSVS 092120Z 23004KT 07/M02 A3032 RMK A01 T00701021  RH  053%=      5-min Rain = 0
KSVS 092125Z 23004KT 07/M03 A3032 RMK A01 T00691026  RH  051%=      5-min Rain = 0
KSVS 092130Z 21004KT 07/M03 A3032 RMK A01 T00681026  RH  051%=      5-min Rain = 0
KSVS 092135Z 20003KT 07/M02 A3032 RMK A01 T00681024  RH  052%=      5-min Rain = 0
KSVS 092140Z 21004KT 07/M02 A3032 RMK A01 T00691024  RH  052%=      5-min Rain = 0
KSVS 092145Z 21003KT 07/M02 A3032 RMK A01 T00671022  RH  053%=      5-min Rain = 0
KSVS 092150Z 19003KT 07/M02 A3032 RMK A01 T00691023  RH  052%=      5-min Rain = 0
KSVS 092155Z 21003KT 07/M02 A3032 RMK A01 T00691021  RH  053%=      5-min Rain = 0.01
KSVS 092200Z 18003KT 07/M02 A3032 RMK A01 T00701020  RH  053%=      5-min Rain = 0
KSVS 092205Z 21003KT 07/M02 A3032 RMK A01 T00691023  RH  053%=      5-min Rain = 0
KSVS 092210Z 20003KT 07/M02 A3032 RMK A01 T00701019  RH  053%=      5-min Rain = 0
KSVS 092215Z 20003KT 07/M02 A3032 RMK A01 T00701018  RH  054%=      5-min Rain = 0
KSVS 092220Z 19004KT 07/M02 A3032 RMK A01 T00681022  RH  053%=      5-min Rain = 0
KSVS 092225Z 20004KT 06/M02 A3032 RMK A01 T00641021  RH  055%=      5-min Rain = 0
KSVS 092230Z 19004KT 06/M02 A3032 RMK A01 T00631022  RH  055%=      5-min Rain = 0
KSVS 092235Z 18004KT 06/M02 A3032 RMK A01 T00621021  RH  056%=      5-min Rain = 0
KSVS 092240Z 18004KT 06/M02 A3032 RMK A01 T00631017  RH  057%=      5-min Rain = 0
KSVS 092245Z 19004KT 06/M02 A3032 RMK A01 T00611020  RH  057%=      5-min Rain = 0
KSVS 092250Z 18004KT 06/M02 A3032 RMK A01 T00591019  RH  058%=      5-min Rain = 0
KSVS 092255Z 18005KT 06/M02 A3032 RMK A01 T00571015  RH  060%=      5-min Rain = 0
KSVS 092300Z 18005KT 05/M02 A3032 RMK A01 T00531016  RH  061%=      5-min Rain = 0
KSVS 092305Z 19005KT 05/M02 A3032 RMK A01 T00501017  RH  062%=      5-min Rain = 0
KSVS 092310Z 20004KT 05/M02 A3032 RMK A01 T00461015  RH  065%=      5-min Rain = 0
KSVS 092315Z 20005KT 04/M02 A3032 RMK A01 T00411016  RH  067%=      5-min Rain = 0
KSVS 092320Z 21004KT 04/M02 A3032 RMK A01 T00371017  RH  068%=      5-min Rain = 0
KSVS 092325Z 21005KT 03/M02 A3032 RMK A01 T00331019  RH  069%=      5-min Rain = 0
KSVS 092330Z 21004KT 03/M02 A3032 RMK A01 T00281020  RH  071%=      5-min Rain = 0
KSVS 092335Z 21004KT 03/M02 A3032 RMK A01 T00281019  RH  072%=      5-min Rain = 0
KSVS 092340Z 20004KT 03/M02 A3033 RMK A01 T00321018  RH  070%=      5-min Rain = 0
KSVS 092345Z 20004KT 03/M02 A3033 RMK A01 T00311019  RH  070%=      5-min Rain = 0
KSVS 092350Z 21005KT 03/M02 A3033 RMK A01 T00271021  RH  072%=      5-min Rain = 0
KSVS 092355Z 22006KT 02/M03 A3033 RMK A01 T00151025  RH  075%=      5-min Rain = 0
KSVS 100000Z 22006KT 01/M03 A3033 RMK A01 T00071027  RH  079%=      5-min Rain = 0
KSVS 100005Z 23006KT 01/M03 A3033 RMK A01 T00061025  RH  080%=      5-min Rain = 0
KSVS 100010Z 23006KT 01/M03 A3033 RMK A01 T00051025  RH  081%=      5-min Rain = 0
KSVS 100015Z 23006KT 00/M03 A3034 RMK A01 T00021026  RH  082%=      5-min Rain = 0
KSVS 100020Z 23006KT M00/M03 A3034 RMK A01 T10021029  RH  083%=      5-min Rain = 0
KSVS 100025Z 23007KT M00/M03 A3034 RMK A01 T10041029  RH  084%=      5-min Rain = 0
KSVS 100030Z 24007KT M01/M03 A3034 RMK A01 T10071030  RH  084%=      5-min Rain = 0
KSVS 100035Z 26005KT M01/M03 A3034 RMK A01 T10061027  RH  086%=      5-min Rain = 0
KSVS 100040Z 26006KT M01/M03 A3034 RMK A01 T10051026  RH  086%=      5-min Rain = 0
KSVS 100045Z 26006KT M01/M03 A3034 RMK A01 T10081028  RH  087%=      5-min Rain = 0
KSVS 100050Z 26007KT M01/M03 A3034 RMK A01 T10091027  RH  088%=      5-min Rain = 0
KSVS 100055Z 26007KT M01/M02 A3035 RMK A01 T10061024  RH  088%=      5-min Rain = 0
KSVS 100100Z 26007KT M01/M02 A3035 RMK A01 T10061024  RH  088%=      5-min Rain = 0
KSVS 100105Z 26008KT M01/M02 A3035 RMK A01 T10061024  RH  089%=      5-min Rain = 0
KSVS 100110Z 27007KT M01/M02 A3035 RMK A01 T10061024  RH  089%=      5-min Rain = 0
KSVS 100115Z 27006KT M01/M03 A3035 RMK A01 T10081025  RH  089%=      5-min Rain = 0
KSVS 100120Z 27007KT M01/M03 A3035 RMK A01 T10091026  RH  089%=      5-min Rain = 0
KSVS 100125Z 26008KT M01/M02 A3035 RMK A01 T10061022  RH  090%=      5-min Rain = 0
KSVS 100130Z 26008KT M00/M02 A3035 RMK A01 T10021020  RH  089%=      5-min Rain = 0
KSVS 100135Z 26008KT M00/M02 A3035 RMK A01 T10021020  RH  088%=      5-min Rain = 0
KSVS 100140Z 26007KT M00/M02 A3035 RMK A01 T10021022  RH  088%=      5-min Rain = 0
KSVS 100145Z 26007KT M00/M02 A3035 RMK A01 T10041023  RH  088%=      5-min Rain = 0
KSVS 100150Z 26007KT M01/M02 A3035 RMK A01 T10051024  RH  088%=      5-min Rain = 0
KSVS 100155Z 26007KT M01/M02 A3035 RMK A01 T10051024  RH  088%=      5-min Rain = 0
KSVS 100200Z 26007KT M01/M02 A3036 RMK A01 T10051024  RH  087%=      5-min Rain = 0
KSVS 100205Z 27006KT M01/M03 A3036 RMK A01 T10051025  RH  087%=      5-min Rain = 0
KSVS 100210Z 27006KT M01/M03 A3036 RMK A01 T10061026  RH  087%=      5-min Rain = 0
KSVS 100215Z 27006KT M01/M03 A3036 RMK A01 T10071027  RH  087%=      5-min Rain = 0
KSVS 100220Z 26007KT M01/M03 A3036 RMK A01 T10081027  RH  087%=      5-min Rain = 0
KSVS 100225Z 27007KT M01/M03 A3036 RMK A01 T10071026  RH  087%=      5-min Rain = 0
KSVS 100230Z 27007KT M01/M03 A3036 RMK A01 T10071026  RH  087%=      5-min Rain = 0
KSVS 100235Z 27006KT M01/M03 A3036 RMK A01 T10091028  RH  087%=      5-min Rain = 0
KSVS 100240Z 26007KT M01/M03 A3036 RMK A01 T10101029  RH  088%=      5-min Rain = 0
KSVS 100245Z 26007KT M01/M03 A3036 RMK A01 T10111030  RH  088%=      5-min Rain = 0
KSVS 100250Z 27006KT M01/M03 A3036 RMK A01 T10121030  RH  088%=      5-min Rain = 0
KSVS 100255Z 27007KT M01/M03 A3036 RMK A01 T10111029  RH  088%=      5-min Rain = 0
KSVS 100300Z 27008KT M01/M03 A3036 RMK A01 T10081027  RH  088%=      5-min Rain = 0
KSVS 100305Z 27008KT M01/M03 A3036 RMK A01 T10081028  RH  087%=      5-min Rain = 0
KSVS 100310Z 27007KT M01/M03 A3037 RMK A01 T10081029  RH  087%=      5-min Rain = 0
KSVS 100315Z 27006KT M01/M03 A3037 RMK A01 T10101030  RH  087%=      5-min Rain = 0
KSVS 100320Z 26007KT M01/M03 A3036 RMK A01 T10121032  RH  087%=      5-min Rain = 0
KSVS 100325Z 26007KT M01/M03 A3036 RMK A01 T10131032  RH  087%=      5-min Rain = 0
KSVS 100330Z 28007KT M01/M03 A3037 RMK A01 T10131032  RH  087%=      5-min Rain = 0
KSVS 100335Z 29006KT M02/M04 A3037 RMK A01 T10161035  RH  087%=      5-min Rain = 0
KSVS 100340Z 29007KT M02/M04 A3037 RMK A01 T10181038  RH  087%=      5-min Rain = 0
KSVS 100345Z 29007KT M02/M04 A3037 RMK A01 T10201039  RH  087%=      5-min Rain = 0
KSVS 100350Z 29006KT M02/M04 A3037 RMK A01 T10201038  RH  088%=      5-min Rain = 0
KSVS 100355Z 27005KT M02/M04 A3036 RMK A01 T10191037  RH  088%=      5-min Rain = 0
KSVS 100400Z 27005KT M02/M04 A3036 RMK A01 T10191038  RH  088%=      5-min Rain = 0
KSVS 100405Z 26006KT M02/M04 A3036 RMK A01 T10191038  RH  088%=      5-min Rain = 0
KSVS 100410Z 26007KT M02/M03 A3036 RMK A01 T10151033  RH  088%=      5-min Rain = 0
KSVS 100415Z 26007KT M02/M04 A3037 RMK A01 T10151035  RH  087%=      5-min Rain = 0
KSVS 100420Z 26007KT M02/M04 A3037 RMK A01 T10161036  RH  087%=      5-min Rain = 0
KSVS 100425Z 27006KT M02/M04 A3037 RMK A01 T10171036  RH  087%=      5-min Rain = 0
KSVS 100430Z 27006KT M02/M04 A3037 RMK A01 T10171036  RH  087%=      5-min Rain = 0
KSVS 100435Z 27007KT M02/M04 A3037 RMK A01 T10171036  RH  087%=      5-min Rain = 0
KSVS 100440Z 27007KT M02/M04 A3037 RMK A01 T10181036  RH  088%=      5-min Rain = 0
KSVS 100445Z 27007KT M02/M04 A3037 RMK A01 T10181036  RH  088%=      5-min Rain = 0
KSVS 100450Z 27006KT M02/M04 A3037 RMK A01 T10191037  RH  088%=      5-min Rain = 0
KSVS 100455Z 26007KT M02/M04 A3037 RMK A01 T10181036  RH  088%=      5-min Rain = 0
KSVS 100500Z 26008KT M02/M04 A3037 RMK A01 T10161035  RH  088%=      5-min Rain = 0
KSVS 100505Z 26007KT M02/M04 A3037 RMK A01 T10161035  RH  087%=      5-min Rain = 0
KSVS 100510Z 27007KT M02/M04 A3037 RMK A01 T10151035  RH  087%=      5-min Rain = 0
KSVS 100515Z 27006KT M02/M04 A3037 RMK A01 T10161036  RH  087%=      5-min Rain = 0
KSVS 100520Z 26006KT M02/M04 A3036 RMK A01 T10181037  RH  087%=      5-min Rain = 0
KSVS 100525Z 26007KT M02/M04 A3037 RMK A01 T10191038  RH  087%=      5-min Rain = 0
KSVS 100530Z 27007KT M02/M04 A3037 RMK A01 T10191037  RH  088%=      5-min Rain = 0
KSVS 100535Z 27007KT M02/M04 A3037 RMK A01 T10191037  RH  088%=      5-min Rain = 0
KSVS 100540Z 27007KT M02/M04 A3037 RMK A01 T10191038  RH  087%=      5-min Rain = 0
KSVS 100545Z 27007KT M02/M04 A3037 RMK A01 T10201038  RH  087%=      5-min Rain = 0
KSVS 100550Z 27007KT M02/M04 A3037 RMK A01 T10201039  RH  087%=      5-min Rain = 0
KSVS 100555Z 27006KT M02/M04 A3036 RMK A01 T10211040  RH  087%=      5-min Rain = 0

Page generated in 0.0097 seconds.